createdAt,value
2018-05-26T00:01:03.916Z,100887.83
2018-05-26T00:03:31.344Z,100894.23
2018-05-26T00:05:58.778Z,100891.27
2018-05-26T00:08:26.430Z,100890.69
2018-05-26T00:10:54.003Z,100884.30
2018-05-26T00:13:21.773Z,100889.74
2018-05-26T00:15:49.232Z,100889.39
2018-05-26T00:18:16.720Z,100883.59
2018-05-26T00:20:44.150Z,100894.44
2018-05-26T00:23:11.580Z,100894.25
2018-05-26T00:25:39.056Z,100904.70
2018-05-26T00:28:06.403Z,100899.89
2018-05-26T00:30:33.841Z,100905.73
2018-05-26T00:33:01.262Z,100900.14
2018-05-26T00:35:28.690Z,100908.37
2018-05-26T00:37:56.103Z,100896.59
2018-05-26T00:40:23.510Z,100907.60
2018-05-26T00:42:50.940Z,100907.44
2018-05-26T00:45:18.388Z,100911.06
2018-05-26T00:47:45.817Z,100905.28
2018-05-26T00:50:13.244Z,100909.27
2018-05-26T00:52:40.667Z,100907.09
2018-05-26T00:55:08.093Z,100896.70
2018-05-26T00:57:35.507Z,100898.92
2018-05-26T01:00:02.917Z,100898.54
2018-05-26T01:02:30.352Z,100896.34
2018-05-26T01:04:57.768Z,100900.15
2018-05-26T01:07:25.171Z,100897.72
2018-05-26T01:09:52.923Z,100906.53
2018-05-26T01:12:20.336Z,100911.72
2018-05-26T01:14:47.744Z,100910.73
2018-05-26T01:17:15.536Z,100912.73
2018-05-26T01:19:42.959Z,100916.52
2018-05-26T01:22:10.424Z,100918.73
2018-05-26T01:24:38.152Z,100909.95
2018-05-26T01:27:05.571Z,100909.14
2018-05-26T01:29:32.976Z,100906.34
2018-05-26T01:32:00.400Z,100915.12
2018-05-26T01:34:27.850Z,100911.34
2018-05-26T01:36:55.293Z,100910.91
2018-05-26T01:39:22.798Z,100909.52
2018-05-26T01:41:50.324Z,100922.29
2018-05-26T01:44:17.728Z,100915.13
2018-05-26T01:46:45.193Z,100911.13
2018-05-26T01:49:12.608Z,100918.89
2018-05-26T01:51:40.016Z,100913.89
2018-05-26T01:54:07.434Z,100912.70
2018-05-26T01:56:34.846Z,100910.90
2018-05-26T01:59:02.282Z,100914.06
2018-05-26T02:01:29.925Z,100906.45
2018-05-26T02:03:57.352Z,100912.61
2018-05-26T02:06:24.809Z,100907.22
2018-05-26T02:08:52.286Z,100907.61
2018-05-26T02:11:19.837Z,100915.78
2018-05-26T02:13:47.314Z,100911.39
2018-05-26T02:16:14.763Z,100911.98
2018-05-26T02:18:42.177Z,100909.77
2018-05-26T02:21:09.742Z,100906.17
2018-05-26T02:23:37.145Z,100914.34
2018-05-26T02:26:04.553Z,100907.34
2018-05-26T02:28:31.971Z,100902.13
2018-05-26T02:30:59.384Z,100905.91
2018-05-26T02:33:26.821Z,100898.91
2018-05-26T02:35:54.269Z,100899.69
2018-05-26T02:38:21.740Z,100897.66
2018-05-26T02:40:49.177Z,100897.05
2018-05-26T02:43:16.624Z,100894.42
2018-05-26T02:45:44.045Z,100898.99
2018-05-26T02:48:11.477Z,100899.19
2018-05-26T02:50:38.880Z,100900.16
2018-05-26T02:53:06.304Z,100898.92
2018-05-26T02:55:33.713Z,100902.27
2018-05-26T02:58:01.141Z,100902.25
2018-05-26T03:00:28.575Z,100898.44
2018-05-26T03:02:56.022Z,100900.18
2018-05-26T03:05:29.137Z,100895.38
2018-05-26T03:08:02.244Z,100901.73
2018-05-26T03:10:35.660Z,100900.31
2018-05-26T03:13:08.741Z,100897.70
2018-05-26T03:15:36.159Z,100896.88
2018-05-26T03:18:06.065Z,100893.46
2018-05-26T03:20:33.468Z,100890.05
2018-05-26T03:23:00.924Z,100890.45
2018-05-26T03:25:28.354Z,100894.64
2018-05-26T03:27:56.290Z,100899.59
2018-05-26T03:30:23.721Z,100900.00
2018-05-26T03:32:51.230Z,100899.78
2018-05-26T03:35:18.661Z,100899.78
2018-05-26T03:37:46.074Z,100907.34
2018-05-26T03:40:13.491Z,100900.95
2018-05-26T03:42:40.913Z,100907.12
2018-05-26T03:45:08.319Z,100906.53
2018-05-26T03:47:36.031Z,100912.11
2018-05-26T03:50:03.452Z,100911.92
2018-05-26T03:52:30.864Z,100914.52
2018-05-26T03:58:26.977Z,100910.38
2018-05-26T04:00:54.386Z,100916.36
2018-05-26T04:03:21.954Z,100913.97
2018-05-26T04:05:49.373Z,100913.02
2018-05-26T04:08:17.101Z,100918.41
2018-05-26T04:10:44.523Z,100914.44
2018-05-26T04:13:11.936Z,100925.63
2018-05-26T04:15:39.336Z,100916.70
2018-05-26T04:18:06.976Z,100922.50
2018-05-26T04:20:34.380Z,100926.73
2018-05-26T04:23:01.791Z,100925.03
2018-05-26T04:25:29.209Z,100932.50
2018-05-26T04:27:56.645Z,100936.11
2018-05-26T04:30:24.117Z,100939.91
2018-05-26T04:32:51.631Z,100933.73
2018-05-26T04:35:19.393Z,100937.08
2018-05-26T04:37:46.863Z,100934.85
2018-05-26T04:40:14.267Z,100928.56
2018-05-26T04:42:41.692Z,100933.51
2018-05-26T04:45:09.102Z,100931.94
2018-05-26T04:47:36.509Z,100937.89
2018-05-26T04:50:03.937Z,100936.75
2018-05-26T04:52:31.349Z,100949.27
2018-05-26T04:54:58.798Z,100947.16
2018-05-26T04:57:26.445Z,100932.88
2018-05-26T04:59:53.919Z,100937.47
2018-05-26T05:02:21.393Z,100942.27
2018-05-26T05:04:49.036Z,100940.67
2018-05-26T05:07:16.489Z,100941.85
2018-05-26T05:09:43.900Z,100948.69
2018-05-26T05:12:11.324Z,100950.59
2018-05-26T05:14:38.734Z,100946.66
2018-05-26T05:17:06.458Z,100944.53
2018-05-26T05:19:33.865Z,100942.55
2018-05-26T05:22:01.312Z,100943.03
2018-05-26T05:24:28.733Z,100943.40
2018-05-26T05:26:56.151Z,100945.31
2018-05-26T05:29:23.584Z,100943.46
2018-05-26T05:31:50.987Z,100951.21
2018-05-26T05:34:18.390Z,100947.62
2018-05-26T05:36:46.113Z,100949.45
2018-05-26T05:39:13.527Z,100946.85
2018-05-26T05:41:40.944Z,100954.05
2018-05-26T05:44:08.517Z,100949.59
2018-05-26T05:46:35.930Z,100948.45
2018-05-26T05:49:03.342Z,100951.28
2018-05-26T05:51:30.756Z,100953.08
2018-05-26T05:53:58.162Z,100953.47
2018-05-26T05:56:25.605Z,100953.68
2018-05-26T05:58:52.984Z,100957.91
2018-05-26T06:01:20.462Z,100962.80
2018-05-26T06:03:47.911Z,100963.60
2018-05-26T06:06:15.328Z,100975.48
2018-05-26T06:08:42.736Z,100976.02
2018-05-26T06:11:10.141Z,100980.98
2018-05-26T06:13:37.555Z,100980.81
2018-05-26T06:16:04.988Z,100984.31
2018-05-26T06:18:32.422Z,100985.37
2018-05-26T06:20:59.833Z,100981.75
2018-05-26T06:23:28.190Z,100982.94
2018-05-26T06:25:55.612Z,100984.64
2018-05-26T06:28:23.032Z,100989.59
2018-05-26T06:30:50.750Z,100994.11
2018-05-26T06:33:18.205Z,100982.86
2018-05-26T06:35:45.599Z,100985.28
2018-05-26T06:38:13.010Z,100987.18
2018-05-26T06:40:40.567Z,100990.14
2018-05-26T06:43:07.974Z,100990.02
2018-05-26T06:45:35.381Z,100993.05
2018-05-26T06:48:02.803Z,100987.59
2018-05-26T06:50:30.212Z,100992.86
2018-05-26T06:52:57.628Z,100991.02
2018-05-26T06:55:25.028Z,100988.16
2018-05-26T06:57:52.433Z,100989.10
2018-05-26T07:00:19.895Z,100990.66
2018-05-26T07:02:47.321Z,100986.63
2018-05-26T07:05:14.732Z,100994.31
2018-05-26T07:07:42.148Z,100998.19
2018-05-26T07:10:09.868Z,100996.94
2018-05-26T07:12:37.289Z,100992.93
2018-05-26T07:15:04.719Z,100994.08
2018-05-26T07:17:32.165Z,101000.87
2018-05-26T07:19:59.563Z,101002.78
2018-05-26T07:22:26.988Z,100997.76
2018-05-26T07:24:54.402Z,100997.20
2018-05-26T07:27:21.796Z,100995.27
2018-05-26T07:29:49.226Z,100994.02
2018-05-26T07:32:16.660Z,100999.52
2018-05-26T07:34:44.086Z,100992.42
2018-05-26T07:37:11.496Z,100994.54
2018-05-26T07:39:38.900Z,100991.33
2018-05-26T07:42:06.324Z,100995.12
2018-05-26T07:44:33.733Z,100995.27
2018-05-26T07:47:01.434Z,100984.41
2018-05-26T07:49:28.857Z,100985.13
2018-05-26T07:51:56.258Z,100980.19
2018-05-26T07:54:23.712Z,100988.87
2018-05-26T07:56:51.173Z,100983.23
2018-05-26T07:59:18.673Z,100986.31
2018-05-26T08:01:46.145Z,100981.63
2018-05-26T08:04:13.561Z,100989.87
2018-05-26T08:06:41.051Z,100986.43
2018-05-26T08:09:08.479Z,100979.83
2018-05-26T08:11:35.897Z,100978.03
2018-05-26T08:14:03.318Z,100981.67
2018-05-26T08:16:30.774Z,100979.97
2018-05-26T08:18:58.403Z,100975.73
2018-05-26T08:21:26.209Z,100973.70
2018-05-26T08:23:53.805Z,100980.80
2018-05-26T08:26:21.994Z,100989.66
2018-05-26T08:28:49.397Z,100989.44
2018-05-26T08:31:16.857Z,100982.84
2018-05-26T08:33:44.317Z,100987.55
2018-05-26T08:36:11.692Z,100983.34
2018-05-26T08:38:39.119Z,100983.83
2018-05-26T08:41:06.552Z,100983.94
2018-05-26T08:43:34.024Z,100984.84
2018-05-26T08:46:01.796Z,100989.18
2018-05-26T08:48:29.271Z,100983.83
2018-05-26T08:50:56.681Z,100990.32
2018-05-26T08:53:24.125Z,100994.70
2018-05-26T08:55:51.529Z,100986.80
2018-05-26T08:58:18.970Z,100988.38
2018-05-26T09:00:46.714Z,100985.20
2018-05-26T09:03:14.141Z,100986.75
2018-05-26T09:05:41.666Z,100981.85
2018-05-26T09:08:09.009Z,100985.46
2018-05-26T09:10:38.889Z,100992.39
2018-05-26T09:13:06.292Z,100987.22
2018-05-26T09:15:33.691Z,100989.05
2018-05-26T09:18:01.665Z,100995.67
2018-05-26T09:20:29.200Z,100991.48
2018-05-26T09:22:56.617Z,100985.66
2018-05-26T09:25:24.353Z,100982.66
2018-05-26T09:27:51.725Z,100973.73
2018-05-26T09:30:19.217Z,100980.80
2018-05-26T09:32:46.572Z,100972.62
2018-05-26T09:35:13.984Z,100981.52
2018-05-26T09:37:42.773Z,100974.69
2018-05-26T09:40:10.229Z,100972.16
2018-05-26T09:42:37.621Z,100994.02
2018-05-26T09:45:05.045Z,100979.84
2018-05-26T09:47:32.444Z,100977.50
2018-05-26T09:49:59.877Z,100979.11
2018-05-26T09:52:27.322Z,100981.12
2018-05-26T09:54:54.795Z,100981.50
2018-05-26T09:57:22.244Z,100969.42
2018-05-26T09:59:49.756Z,100981.73
2018-05-26T10:02:17.213Z,100981.77
2018-05-26T10:04:44.796Z,100978.78
2018-05-26T10:07:12.200Z,100988.98
2018-05-26T10:09:39.612Z,100980.16
2018-05-26T10:12:07.041Z,100992.25
2018-05-26T10:14:34.442Z,100991.94
2018-05-26T10:17:01.961Z,100981.97
2018-05-26T10:19:29.389Z,100979.50
2018-05-26T10:21:56.886Z,100986.86
2018-05-26T10:24:24.325Z,100987.95
2018-05-26T10:26:51.783Z,100986.12
2018-05-26T10:29:19.294Z,100985.36
2018-05-26T10:31:46.710Z,100982.70
2018-05-26T10:34:14.132Z,100986.95
2018-05-26T10:36:42.958Z,100987.72
2018-05-26T10:39:10.384Z,100990.62
2018-05-26T10:41:37.793Z,100987.20
2018-05-26T10:44:05.701Z,100990.33
2018-05-26T10:46:33.509Z,100974.97
2018-05-26T10:49:00.961Z,100968.80
2018-05-26T10:51:28.368Z,100977.19
2018-05-26T10:53:55.838Z,100972.04
2018-05-26T10:56:23.375Z,100973.23
2018-05-26T10:58:51.153Z,100977.62
2018-05-26T11:01:18.564Z,100973.67
2018-05-26T11:03:45.980Z,100973.72
2018-05-26T11:06:13.421Z,100973.05
2018-05-26T11:08:40.825Z,100966.49
2018-05-26T11:11:09.173Z,100972.83
2018-05-26T11:13:36.630Z,100966.09
2018-05-26T11:16:04.106Z,100975.59
2018-05-26T11:18:31.884Z,100970.18
2018-05-26T11:20:59.364Z,100968.89
2018-05-26T11:23:26.811Z,100968.44
2018-05-26T11:25:54.693Z,100971.69
2018-05-26T11:28:22.356Z,100978.97
2018-05-26T11:30:50.461Z,100972.71
2018-05-26T11:33:17.949Z,100978.44
2018-05-26T11:35:45.409Z,100971.33
2018-05-26T11:38:13.723Z,100974.74
2018-05-26T11:40:41.161Z,100970.36
2018-05-26T11:43:08.563Z,100971.16
2018-05-26T11:45:36.005Z,100968.27
2018-05-26T11:48:03.420Z,100966.14
2018-05-26T11:50:30.907Z,100966.81
2018-05-26T11:52:58.391Z,100967.51
2018-05-26T11:55:25.872Z,100959.58
2018-05-26T11:57:53.349Z,100945.23
2018-05-26T12:00:20.841Z,100956.33
2018-05-26T12:02:48.245Z,100949.86
2018-05-26T12:05:15.713Z,100955.80
2018-05-26T12:07:43.148Z,100948.07
2018-05-26T12:10:10.553Z,100943.09
2018-05-26T12:12:38.888Z,100942.79
2018-05-26T12:15:06.302Z,100947.28
2018-05-26T12:17:33.720Z,100947.73
2018-05-26T12:20:01.142Z,100954.20
2018-05-26T12:22:28.548Z,100955.41
2018-05-26T12:24:55.980Z,100951.32
2018-05-26T12:27:23.388Z,100946.52
2018-05-26T12:29:50.804Z,100956.77
2018-05-26T12:32:18.239Z,100947.36
2018-05-26T12:34:45.955Z,100950.64
2018-05-26T12:37:13.357Z,100942.09
2018-05-26T12:39:40.772Z,100947.69
2018-05-26T12:42:08.192Z,100940.77
2018-05-26T12:44:35.595Z,100935.66
2018-05-26T12:47:03.030Z,100937.33
2018-05-26T12:49:30.449Z,100940.08
2018-05-26T12:51:57.854Z,100931.53
2018-05-26T12:54:25.272Z,100940.28
2018-05-26T12:56:52.873Z,100940.45
2018-05-26T12:59:20.334Z,100933.39
2018-05-26T13:01:47.757Z,100936.59
2018-05-26T13:04:15.276Z,100935.97
2018-05-26T13:06:42.690Z,100941.34
2018-05-26T13:09:10.188Z,100938.80
2018-05-26T13:11:37.613Z,100930.59
2018-05-26T13:14:05.388Z,100938.09
2018-05-26T13:16:32.806Z,100936.38
2018-05-26T13:19:00.307Z,100922.48
2018-05-26T13:21:27.818Z,100923.53
2018-05-26T13:23:55.504Z,100925.30
2018-05-26T13:26:23.102Z,100929.13
2018-05-26T13:28:50.669Z,100933.70
2018-05-26T13:31:18.181Z,100924.08
2018-05-26T13:33:45.573Z,100922.56
2018-05-26T13:36:13.001Z,100925.50
2018-05-26T13:38:40.426Z,100919.95
2018-05-26T13:41:07.834Z,100927.85
2018-05-26T13:43:35.259Z,100923.70
2018-05-26T13:46:02.660Z,100922.77
2018-05-26T13:48:30.093Z,100921.34
2018-05-26T13:50:57.531Z,100926.66
2018-05-26T13:53:24.938Z,100927.11
2018-05-26T13:55:52.344Z,100925.83
2018-05-26T13:58:19.772Z,100932.23
2018-05-26T14:00:47.189Z,100926.65
2018-05-26T14:03:14.612Z,100919.95
2018-05-26T14:05:42.073Z,100919.72
2018-05-26T14:08:09.500Z,100917.24
2018-05-26T14:10:36.964Z,100904.78
2018-05-26T14:13:04.544Z,100912.54
2018-05-26T14:15:31.952Z,100914.77
2018-05-26T14:17:59.379Z,100911.78
2018-05-26T14:20:26.806Z,100915.59
2018-05-26T14:22:54.220Z,100915.29
2018-05-26T14:25:21.635Z,100914.13
2018-05-26T14:27:49.198Z,100916.58
2018-05-26T14:30:16.602Z,100913.94
2018-05-26T14:32:44.000Z,100917.23
2018-05-26T14:35:11.775Z,100916.62
2018-05-26T14:37:39.203Z,100907.93
2018-05-26T14:40:06.621Z,100906.95
2018-05-26T14:42:34.053Z,100908.98
2018-05-26T14:45:01.454Z,100908.15
2018-05-26T14:47:28.860Z,100911.66
2018-05-26T14:49:56.313Z,100905.08
2018-05-26T14:52:23.701Z,100909.78
2018-05-26T14:54:51.124Z,100900.91
2018-05-26T14:57:18.537Z,100906.83
2018-05-26T14:59:45.949Z,100906.59
2018-05-26T15:02:13.375Z,100908.19
2018-05-26T15:04:40.785Z,100897.14
2018-05-26T15:07:08.360Z,100907.17
2018-05-26T15:09:35.775Z,100897.05
2018-05-26T15:12:03.185Z,100902.03
2018-05-26T15:14:30.615Z,100896.12
2018-05-26T15:16:58.043Z,100896.66
2018-05-26T15:19:25.467Z,100893.73
2018-05-26T15:21:52.882Z,100891.38
2018-05-26T15:24:20.526Z,100884.46
2018-05-26T15:26:47.930Z,100896.30
2018-05-26T15:29:15.340Z,100899.72
2018-05-26T15:31:42.759Z,100895.06
2018-05-26T15:34:10.392Z,100894.97
2018-05-26T15:36:37.812Z,100895.91
2018-05-26T15:39:05.865Z,100891.79
2018-05-26T15:41:33.273Z,100886.00
2018-05-26T15:44:00.698Z,100889.78
2018-05-26T15:46:28.115Z,100884.86
2018-05-26T15:48:55.535Z,100890.76
2018-05-26T15:51:22.940Z,100885.61
2018-05-26T15:53:52.267Z,100887.69
2018-05-26T15:56:20.016Z,100881.66
2018-05-26T15:58:47.425Z,100881.94
2018-05-26T16:01:14.836Z,100883.98
2018-05-26T16:03:42.260Z,100881.67
2018-05-26T16:06:09.660Z,100880.38
2018-05-26T16:08:37.486Z,100876.42
2018-05-26T16:11:04.908Z,100880.56
2018-05-26T16:13:32.316Z,100883.75
2018-05-26T16:15:59.747Z,100881.53
2018-05-26T16:18:27.465Z,100877.50
2018-05-26T16:20:54.880Z,100888.90
2018-05-26T16:23:22.276Z,100886.19
2018-05-26T16:25:50.012Z,100880.25
2018-05-26T16:28:17.440Z,100890.89
2018-05-26T16:30:44.852Z,100883.72
2018-05-26T16:33:12.310Z,100884.52
2018-05-26T16:35:39.729Z,100891.73
2018-05-26T16:38:07.152Z,100889.73
2018-05-26T16:40:34.565Z,100889.42
2018-05-26T16:43:02.127Z,100889.10
2018-05-26T16:45:29.556Z,100891.41
2018-05-26T16:47:56.976Z,100890.39
2018-05-26T16:50:24.400Z,100890.34
2018-05-26T16:52:51.819Z,100901.96
2018-05-26T16:55:19.243Z,100895.88
2018-05-26T16:57:46.781Z,100892.73
2018-05-26T17:00:14.192Z,100894.14
2018-05-26T17:02:41.612Z,100892.14
2018-05-26T17:05:09.021Z,100896.83
2018-05-26T17:07:36.853Z,100896.83
2018-05-26T17:10:04.264Z,100892.48
2018-05-26T17:12:31.668Z,100889.36
2018-05-26T17:14:59.088Z,100895.34
2018-05-26T17:17:26.494Z,100890.77
2018-05-26T17:19:53.917Z,100893.53
2018-05-26T17:22:21.341Z,100897.02
2018-05-26T17:24:48.753Z,100894.95
2018-05-26T17:27:16.188Z,100891.95
2018-05-26T17:29:43.620Z,100890.16
2018-05-26T17:32:11.065Z,100896.77
2018-05-26T17:34:38.481Z,100896.59
2018-05-26T17:37:05.892Z,100904.09
2018-05-26T17:39:33.590Z,100895.16
2018-05-26T17:42:01.012Z,100900.38
2018-05-26T17:44:28.485Z,100898.61
2018-05-26T17:46:55.950Z,100884.91
2018-05-26T17:49:23.515Z,100893.47
2018-05-26T17:51:50.990Z,100893.98
2018-05-26T17:54:18.419Z,100888.41
2018-05-26T17:56:45.860Z,100896.08
2018-05-26T17:59:13.278Z,100896.67
2018-05-26T18:01:40.702Z,100885.53
2018-05-26T18:04:08.124Z,100891.13
2018-05-26T18:06:35.550Z,100893.41
2018-05-26T18:09:02.959Z,100894.97
2018-05-26T18:11:30.413Z,100900.12
2018-05-26T18:13:58.266Z,100901.91
2018-05-26T18:16:25.736Z,100894.03
2018-05-26T18:18:53.218Z,100897.25
2018-05-26T18:21:20.672Z,100894.53
2018-05-26T18:23:48.089Z,100900.33
2018-05-26T18:26:15.543Z,100899.86
2018-05-26T18:28:42.981Z,100901.23
2018-05-26T18:31:10.400Z,100898.80
2018-05-26T18:33:37.839Z,100903.42
2018-05-26T18:36:05.253Z,100894.31
2018-05-26T18:38:32.666Z,100898.17
2018-05-26T18:41:00.142Z,100899.20
2018-05-26T18:43:27.576Z,100907.17
2018-05-26T18:45:55.030Z,100895.78
2018-05-26T18:48:22.498Z,100902.22
2018-05-26T18:50:49.943Z,100896.11
2018-05-26T18:53:17.363Z,100906.27
2018-05-26T18:55:44.820Z,100913.42
2018-05-26T18:58:12.532Z,100912.63
2018-05-26T19:00:39.939Z,100905.06
2018-05-26T19:03:07.345Z,100915.72
2018-05-26T19:05:34.770Z,100915.08
2018-05-26T19:08:02.173Z,100911.26
2018-05-26T19:10:29.584Z,100912.08
2018-05-26T19:12:57.312Z,100911.43
2018-05-26T19:15:24.776Z,100908.72
2018-05-26T19:17:52.241Z,100914.94
2018-05-26T19:20:19.677Z,100909.24
2018-05-26T19:22:47.163Z,100914.26
2018-05-26T19:25:14.944Z,100912.44
2018-05-26T19:27:42.356Z,100915.41
2018-05-26T19:30:09.763Z,100917.78
2018-05-26T19:32:37.194Z,100915.92
2018-05-26T19:35:04.608Z,100917.34
2018-05-26T19:37:32.184Z,100919.30
2018-05-26T19:39:59.613Z,100916.84
2018-05-26T19:42:27.053Z,100921.06
2018-05-26T19:44:54.845Z,100921.61
2018-05-26T19:47:22.405Z,100914.70
2018-05-26T19:49:49.940Z,100922.14
2018-05-26T19:52:17.342Z,100921.66
2018-05-26T19:54:44.800Z,100924.45
2018-05-26T19:57:12.377Z,100930.97
2018-05-26T19:59:39.782Z,100934.11
2018-05-26T20:02:07.194Z,100935.19
2018-05-26T20:04:34.773Z,100941.34
2018-05-26T20:07:02.181Z,100943.04
2018-05-26T20:09:29.605Z,100944.81
2018-05-26T20:11:57.120Z,100938.90
2018-05-26T20:14:24.524Z,100949.72
2018-05-26T20:16:52.408Z,100949.79
2018-05-26T20:19:19.840Z,100943.70
2018-05-26T20:21:47.296Z,100954.07
2018-05-26T20:24:14.753Z,100945.97
2018-05-26T20:26:42.293Z,100947.48
2018-05-26T20:29:09.700Z,100945.39
2018-05-26T20:31:37.236Z,100946.91
2018-05-26T20:34:04.655Z,100947.62
2018-05-26T20:36:32.091Z,100953.19
2018-05-26T20:38:59.528Z,100955.97
2018-05-26T20:41:26.955Z,100957.33
2018-05-26T20:43:54.398Z,100955.69
2018-05-26T20:46:21.876Z,100960.20
2018-05-26T20:48:49.288Z,100958.47
2018-05-26T20:51:16.738Z,100965.98
2018-05-26T20:53:44.167Z,100963.42
2018-05-26T20:56:11.747Z,100969.13
2018-05-26T20:58:39.160Z,100968.56
2018-05-26T21:01:06.595Z,100966.63
2018-05-26T21:03:35.040Z,100967.47
2018-05-26T21:06:02.570Z,100966.54
2018-05-26T21:08:30.028Z,100971.59
2018-05-26T21:10:57.456Z,100973.14
2018-05-26T21:13:24.982Z,100982.61
2018-05-26T21:15:52.567Z,100981.34
2018-05-26T21:18:19.994Z,100982.41
2018-05-26T21:20:47.460Z,100981.23
2018-05-26T21:23:14.929Z,100984.24
2018-05-26T21:25:42.409Z,100987.88
2018-05-26T21:28:09.835Z,100982.67
2018-05-26T21:30:37.354Z,100980.63
2018-05-26T21:33:04.787Z,100987.08
2018-05-26T21:35:32.208Z,100985.11
2018-05-26T21:37:59.740Z,100992.93
2018-05-26T21:40:27.389Z,100985.73
2018-05-26T21:42:54.841Z,100987.55
2018-05-26T21:45:22.297Z,100989.01
2018-05-26T21:47:49.728Z,100988.63
2018-05-26T21:50:17.147Z,100990.09
2018-05-26T21:52:44.913Z,101001.98
2018-05-26T21:55:12.345Z,101001.00
2018-05-26T21:57:39.754Z,100999.85
2018-05-26T22:00:07.164Z,101002.31
2018-05-26T22:02:34.576Z,101005.77
2018-05-26T22:05:02.165Z,101007.37
2018-05-26T22:07:29.567Z,101011.02
2018-05-26T22:09:56.996Z,101011.45
2018-05-26T22:12:24.829Z,101021.11
2018-05-26T22:14:52.244Z,101015.75
2018-05-26T22:17:19.646Z,101018.37
2018-05-26T22:19:47.064Z,101021.02
2018-05-26T22:22:22.968Z,101018.23
2018-05-26T22:24:50.500Z,101015.64
2018-05-26T22:27:17.905Z,101014.61
2018-05-26T22:29:45.599Z,101015.01
2018-05-26T22:32:13.004Z,101016.63
2018-05-26T22:34:40.613Z,101017.45
2018-05-26T22:37:08.057Z,101015.64
2018-05-26T22:39:35.467Z,101013.08
2018-05-26T22:42:02.924Z,101018.29
2018-05-26T22:44:30.722Z,101012.30
2018-05-26T22:46:58.123Z,101017.11
2018-05-26T22:49:25.539Z,101018.11
2018-05-26T22:51:53.023Z,101014.91
2018-05-26T22:54:20.496Z,101014.72
2018-05-26T22:56:47.948Z,101017.74
2018-05-26T22:59:15.517Z,101019.96
2018-05-26T23:01:42.927Z,101022.38
2018-05-26T23:04:10.328Z,101020.19
2018-05-26T23:06:37.891Z,101021.01
2018-05-26T23:09:06.002Z,101020.59
2018-05-26T23:11:33.502Z,101015.62
2018-05-26T23:14:01.052Z,101017.62
2018-05-26T23:16:28.458Z,101017.22
2018-05-26T23:18:55.874Z,101011.00
2018-05-26T23:21:23.297Z,101004.59
2018-05-26T23:23:50.705Z,101001.81
2018-05-26T23:26:18.127Z,101009.63
2018-05-26T23:28:45.545Z,100997.63
2018-05-26T23:31:12.972Z,101005.03
2018-05-26T23:33:40.373Z,101001.64
2018-05-26T23:36:07.808Z,100998.66
2018-05-26T23:38:35.214Z,100995.27
2018-05-26T23:41:02.613Z,100993.50
2018-05-26T23:43:30.044Z,100989.52
2018-05-26T23:45:57.452Z,100982.09
2018-05-26T23:48:24.877Z,100988.31
2018-05-26T23:50:52.348Z,100981.33
2018-05-26T23:53:19.791Z,100985.52
2018-05-26T23:55:47.213Z,100983.36
2018-05-26T23:58:14.612Z,100985.75
